Red River Army Depot, Texas
Current Conditions -  °F | °C
As of 3:53 AM on Thursday 27 Nov 2014 (Local Time) from KTXK Reporting Station
Clear Clear  
Wind Chill: 35°   Ceiling: Unl
Heat Index: 41°   Visibility: 10mi
Dew Point: 27°   Wind: 9mph
Humidity: 57%   Direction: 300°WNW
Pressure: 30.44"   Gusts: NA
Location:  33.3633°N, 94.2141°W
Report Text: KTXK 270953Z AUTO 30008KT 10SM CLR 05/M03 A3044 RMK AO2 SLP307 T00501028
Loading
Personal Weather Stations






























Interactive Weather Map New forecast layout! Learn more

10-Day Weather Forecast

Advertisements
Track Severe Weather on mobile